Time;durP1;ratioP1;P1;durP2;ratioP2;P2;SDS_P1;SDS_P2;PMS_P1;PMS_P2;Temp;Humidity;BMP_temperature;BMP_pressure;BME280_temperature;BME280_humidity;BME280_pressure;Samples;Min_cycle;Max_cycle;Signal;HPM_P1;HPM_P2
2021/01/18 00:00:35;;;;;;;3.13;1.63;;;7.50;79.50;;;;;;5077526;28;20055;-39
2021/01/18 00:03:04;;;;;;;3.38;1.52;;;7.50;79.50;;;;;;5085588;28;20082;-40
2021/01/18 00:05:30;;;;;;;4.22;2.10;;;7.50;79.50;;;;;;5091715;28;20051;-39
2021/01/18 00:07:57;;;;;;;2.72;1.75;;;7.50;79.50;;;;;;5091927;28;20063;-40
2021/01/18 00:10:24;;;;;;;3.47;2.05;;;7.50;79.50;;;;;;5075604;28;20078;-40
2021/01/18 00:12:52;;;;;;;1.75;1.30;;;7.50;79.60;;;;;;5078748;28;20044;-41
2021/01/18 00:15:20;;;;;;;2.92;1.80;;;7.50;79.50;;;;;;5088116;28;20058;-40
2021/01/18 00:17:46;;;;;;;3.78;1.63;;;7.50;79.50;;;;;;5077861;28;20044;-39
2021/01/18 00:20:15;;;;;;;3.13;2.28;;;7.50;79.50;;;;;;5075575;28;20117;-40
2021/01/18 00:22:42;;;;;;;4.45;1.60;;;7.50;79.60;;;;;;5077220;28;20119;-40
2021/01/18 00:25:17;;;;;;;2.78;1.80;;;7.50;79.60;;;;;;5095577;28;20754;-45
2021/01/18 00:27:43;;;;;;;4.05;1.77;;;7.50;79.50;;;;;;5093711;28;20093;-40
2021/01/18 00:30:12;;;;;;;1.77;1.42;;;7.50;79.50;;;;;;5095692;28;20059;-40
2021/01/18 00:32:39;;;;;;;3.55;2.03;;;7.50;79.60;;;;;;5087315;28;20069;-39
2021/01/18 00:35:06;;;;;;;3.25;1.67;;;7.50;79.60;;;;;;5095255;28;20065;-40
2021/01/18 00:37:40;;;;;;;3.03;2.20;;;7.50;79.60;;;;;;5093646;28;20048;-42
2021/01/18 00:40:07;;;;;;;4.43;1.65;;;7.50;79.60;;;;;;5080483;28;20059;-42
2021/01/18 00:42:32;;;;;;;2.00;1.27;;;7.50;79.60;;;;;;5076059;28;20051;-40
2021/01/18 00:45:00;;;;;;;2.45;1.73;;;7.50;79.60;;;;;;5095194;28;20510;-40
2021/01/18 00:47:26;;;;;;;2.58;1.65;;;7.50;79.60;;;;;;5094850;28;20127;-39
2021/01/18 00:49:52;;;;;;;4.15;1.80;;;7.50;79.60;;;;;;5093791;28;20056;-40
2021/01/18 00:52:17;;;;;;;1.73;1.60;;;7.50;79.60;;;;;;5095128;28;20048;-41
2021/01/18 00:54:43;;;;;;;3.75;1.70;;;7.50;79.60;;;;;;5079217;28;20051;-40
2021/01/18 00:57:09;;;;;;;3.25;1.63;;;7.50;79.60;;;;;;5090278;28;20440;-38
2021/01/18 00:59:34;;;;;;;2.67;1.50;;;7.50;79.60;;;;;;5075905;28;20044;-40
2021/01/18 01:02:00;;;;;;;2.85;1.70;;;7.50;79.60;;;;;;5076225;28;20048;-38
2021/01/18 01:04:26;;;;;;;3.65;1.88;;;7.50;79.60;;;;;;5092758;28;20056;-41
2021/01/18 01:06:51;;;;;;;2.33;1.50;;;7.50;79.60;;;;;;5094678;28;20044;-41
2021/01/18 01:09:18;;;;;;;2.35;1.35;;;7.50;79.60;;;;;;5092894;28;20051;-40
2021/01/18 01:11:46;;;;;;;3.60;1.58;;;7.50;79.60;;;;;;5094976;28;20439;-40
2021/01/18 01:14:12;;;;;;;2.90;1.85;;;7.50;79.60;;;;;;5080161;28;20470;-41
2021/01/18 01:16:41;;;;;;;2.63;1.42;;;7.50;79.60;;;;;;5073959;28;20057;-42
2021/01/18 01:19:09;;;;;;;2.95;1.52;;;7.50;79.60;;;;;;5088077;28;20385;-41
2021/01/18 01:21:35;;;;;;;3.22;1.90;;;7.50;79.60;;;;;;5092558;28;20044;-41
2021/01/18 01:24:00;;;;;;;2.08;1.40;;;7.50;79.60;;;;;;5081072;28;20489;-40
2021/01/18 01:26:26;;;;;;;2.63;1.50;;;7.50;79.60;;;;;;5074651;28;20068;-41
2021/01/18 01:28:52;;;;;;;3.38;1.52;;;7.50;79.60;;;;;;5074564;28;20045;-40
2021/01/18 01:31:18;;;;;;;3.38;1.20;;;7.50;79.60;;;;;;5075525;28;20044;-41
2021/01/18 01:33:45;;;;;;;1.67;1.30;;;7.50;79.60;;;;;;5074174;28;20055;-40
2021/01/18 01:36:10;;;;;;;2.20;1.27;;;7.50;79.60;;;;;;5073791;28;20066;-40
2021/01/18 01:38:36;;;;;;;3.58;1.48;;;7.50;79.60;;;;;;5091887;28;20043;-40
2021/01/18 01:41:02;;;;;;;2.38;1.20;;;7.50;79.60;;;;;;5092841;28;20044;-40
2021/01/18 01:43:28;;;;;;;3.78;1.95;;;7.50;79.60;;;;;;5094384;28;20068;-39
2021/01/18 01:45:54;;;;;;;1.75;1.58;;;7.50;80.00;;;;;;5091048;28;20524;-40
2021/01/18 01:48:19;;;;;;;3.65;1.60;;;7.50;79.60;;;;;;5080963;28;20531;-41
2021/01/18 01:50:46;;;;;;;3.00;1.55;;;7.50;79.60;;;;;;5093762;28;20048;-40
2021/01/18 01:53:20;;;;;;;1.60;1.30;;;7.50;79.60;;;;;;5085620;28;20049;-41
2021/01/18 01:55:46;;;;;;;3.42;1.70;;;7.50;79.60;;;;;;5073705;28;20048;-41
2021/01/18 01:58:12;;;;;;;3.05;1.50;;;7.50;79.60;;;;;;5084518;28;20051;-41
2021/01/18 02:00:40;;;;;;;1.80;1.35;;;7.50;79.60;;;;;;5093732;28;20052;-40
2021/01/18 02:03:07;;;;;;;2.35;1.50;;;7.50;79.60;;;;;;5091875;28;20412;-40
2021/01/18 02:05:33;;;;;;;1.13;0.90;;;7.50;79.60;;;;;;5093459;28;20127;-40
2021/01/18 02:08:00;;;;;;;3.88;1.80;;;7.50;79.60;;;;;;5077841;28;20523;-38
2021/01/18 02:10:27;;;;;;;2.58;1.58;;;7.50;79.60;;;;;;5073650;28;20128;-39
2021/01/18 02:12:53;;;;;;;1.30;1.17;;;7.50;79.60;;;;;;5073325;28;20481;-41
2021/01/18 02:15:56;;;;;;;2.53;1.35;;;7.50;79.60;;;;;;5073645;28;20045;-40
2021/01/18 02:18:35;;;;;;;1.80;1.30;;;7.50;79.60;;;;;;5080736;28;20048;-40
2021/01/18 02:21:25;;;;;;;2.40;1.40;;;7.50;79.60;;;;;;5091781;28;20048;-39
2021/01/18 02:24:31;;;;;;;1.73;1.23;;;7.50;79.60;;;;;;5081539;28;20052;-39
2021/01/18 02:27:25;;;;;;;2.67;1.80;;;7.50;79.60;;;;;;5073098;28;20040;-41
2021/01/18 02:29:53;;;;;;;2.15;1.20;;;7.50;79.60;;;;;;5074136;28;20404;-40
2021/01/18 02:32:50;;;;;;;1.98;1.15;;;7.50;79.60;;;;;;5074098;28;20044;-40
2021/01/18 02:35:34;;;;;;;2.50;1.50;;;7.50;79.60;;;;;;5072970;28;20045;-42
2021/01/18 02:38:09;;;;;;;3.72;1.75;;;7.50;79.60;;;;;;5073214;28;20048;-40
2021/01/18 02:41:03;;;;;;;4.50;1.33;;;7.40;79.50;;;;;;5084856;28;20117;-40
2021/01/18 02:43:36;;;;;;;1.95;1.23;;;7.50;79.60;;;;;;5084536;28;20055;-40
2021/01/18 02:46:03;;;;;;;2.38;1.55;;;7.40;79.50;;;;;;5072821;28;20044;-39
2021/01/18 02:48:30;;;;;;;2.42;1.20;;;7.50;79.60;;;;;;5081271;28;20048;-40
2021/01/18 02:51:01;;;;;;;1.83;1.35;;;7.40;79.50;;;;;;5091352;28;20055;-40
2021/01/18 02:53:28;;;;;;;1.70;1.10;;;7.50;79.60;;;;;;5092796;28;20048;-41
2021/01/18 02:55:53;;;;;;;1.58;1.05;;;7.40;79.60;;;;;;5093022;28;20059;-41
2021/01/18 02:58:22;;;;;;;3.33;1.40;;;7.40;79.50;;;;;;5085392;28;20040;-41
2021/01/18 03:00:55;;;;;;;1.42;1.15;;;7.50;79.60;;;;;;5089145;28;20044;-40
2021/01/18 03:03:55;;;;;;;4.15;1.95;;;7.50;79.60;;;;;;5082184;28;20463;-38
2021/01/18 03:06:29;;;;;;;3.17;1.58;;;7.50;79.60;;;;;;5067870;28;20064;-39
2021/01/18 03:09:00;;;;;;;2.50;1.10;;;7.50;79.60;;;;;;5079693;28;20052;-40
2021/01/18 03:11:34;;;;;;;2.30;1.13;;;7.40;79.60;;;;;;5072709;28;20404;-40
2021/01/18 03:14:08;;;;;;;2.30;1.05;;;7.40;79.60;;;;;;5073874;28;20055;-40
2021/01/18 03:16:43;;;;;;;1.77;1.10;;;7.50;79.60;;;;;;5088708;28;20048;-41
2021/01/18 03:19:10;;;;;;;1.27;1.13;;;7.40;79.50;;;;;;5078427;28;20115;-39
2021/01/18 03:21:36;;;;;;;2.92;1.10;;;7.50;79.60;;;;;;5072546;28;20064;-40
2021/01/18 03:24:02;;;;;;;2.85;1.35;;;7.40;79.60;;;;;;5073367;28;20048;-42
2021/01/18 03:26:27;;;;;;;2.22;1.30;;;7.50;79.60;;;;;;5072418;28;20454;-39
2021/01/18 03:28:54;;;;;;;3.33;1.20;;;7.50;79.60;;;;;;5088213;28;20051;-39
2021/01/18 03:31:21;;;;;;;2.97;1.23;;;7.50;79.60;;;;;;5091050;28;20048;-41
2021/01/18 03:33:46;;;;;;;2.00;1.50;;;7.50;79.60;;;;;;5078003;28;20076;-41
2021/01/18 03:36:12;;;;;;;1.92;1.30;;;7.50;79.60;;;;;;5072549;28;20083;-41
2021/01/18 03:38:38;;;;;;;3.58;1.35;;;7.50;79.60;;;;;;5089918;28;20044;-42
2021/01/18 03:41:04;;;;;;;2.33;1.25;;;7.40;79.60;;;;;;5083170;28;20052;-41
2021/01/18 03:43:29;;;;;;;2.55;1.25;;;7.40;79.60;;;;;;5076988;28;20044;-44
2021/01/18 03:45:55;;;;;;;2.25;1.50;;;7.50;79.60;;;;;;5076656;28;20052;-41
2021/01/18 03:48:21;;;;;;;1.92;1.40;;;7.50;79.60;;;;;;5087614;28;20137;-41
2021/01/18 03:50:49;;;;;;;2.20;1.35;;;7.40;79.60;;;;;;5096341;28;20107;-41
2021/01/18 03:53:15;;;;;;;1.63;1.00;;;7.50;79.60;;;;;;5085216;28;20044;-40
2021/01/18 03:55:40;;;;;;;1.52;0.90;;;7.40;79.60;;;;;;5077097;28;20052;-40
2021/01/18 03:58:06;;;;;;;2.78;1.35;;;7.50;79.60;;;;;;5081068;28;20047;-40
2021/01/18 04:00:34;;;;;;;2.17;1.00;;;7.50;79.60;;;;;;5067575;28;20098;-40
2021/01/18 04:03:00;;;;;;;1.35;1.20;;;7.50;79.60;;;;;;5084161;28;20504;-41
2021/01/18 04:05:26;;;;;;;2.67;1.42;;;7.50;79.60;;;;;;5077070;28;20066;-40
2021/01/18 04:07:53;;;;;;;2.67;1.20;;;7.50;79.60;;;;;;5079440;28;20050;-41
2021/01/18 04:10:24;;;;;;;1.42;1.30;;;7.40;79.60;;;;;;5095932;28;20127;-40
2021/01/18 04:12:51;;;;;;;2.15;1.10;;;7.50;79.70;;;;;;5092517;28;20050;-40
2021/01/18 04:15:19;;;;;;;3.13;1.42;;;7.40;79.60;;;;;;5077047;28;20041;-39
2021/01/18 04:17:50;;;;;;;1.70;0.90;;;7.50;79.60;;;;;;5091720;28;20044;-40
2021/01/18 04:20:16;;;;;;;1.35;1.02;;;7.50;79.60;;;;;;5095843;28;20040;-41
2021/01/18 04:22:53;;;;;;;1.70;1.25;;;7.50;79.70;;;;;;5093258;28;20511;-40
2021/01/18 04:25:21;;;;;;;3.95;1.20;;;7.50;79.60;;;;;;5079110;28;20048;-41
2021/01/18 04:27:53;;;;;;;2.28;1.25;;;7.50;79.70;;;;;;5093964;28;20071;-40
2021/01/18 04:30:21;;;;;;;1.67;1.25;;;7.50;79.70;;;;;;5095119;28;20055;-39
2021/01/18 04:33:05;;;;;;;1.70;1.20;;;7.40;79.60;;;;;;5086759;28;20041;-41
2021/01/18 04:35:32;;;;;;;2.20;1.10;;;7.40;79.60;;;;;;5079832;28;20392;-39
2021/01/18 04:37:59;;;;;;;2.08;1.23;;;7.50;79.70;;;;;;5094093;28;20056;-40
2021/01/18 04:40:27;;;;;;;1.38;1.02;;;7.50;79.70;;;;;;5081536;28;20047;-40
2021/01/18 04:42:53;;;;;;;1.75;1.20;;;7.50;79.70;;;;;;5091848;28;20070;-40
2021/01/18 04:45:22;;;;;;;1.58;1.00;;;7.50;79.70;;;;;;5095552;28;20403;-41
2021/01/18 04:47:50;;;;;;;1.48;1.38;;;7.50;79.70;;;;;;5061708;28;20464;-41
2021/01/18 04:50:17;;;;;;;1.77;1.15;;;7.50;79.70;;;;;;5075224;28;20424;-41
2021/01/18 04:52:51;;;;;;;2.00;1.00;;;7.50;79.70;;;;;;5085153;28;20048;-40
2021/01/18 04:55:28;;;;;;;1.42;0.93;;;7.40;79.60;;;;;;5094646;28;20419;-39
2021/01/18 04:58:02;;;;;;;1.83;1.00;;;7.50;79.70;;;;;;5076618;28;20040;-39
2021/01/18 05:00:39;;;;;;;1.90;1.27;;;7.50;79.70;;;;;;5095291;28;20088;-42
2021/01/18 05:03:06;;;;;;;0.93;0.70;;;7.50;79.70;;;;;;5086063;28;20048;-40
2021/01/18 05:05:44;;;;;;;1.50;0.95;;;7.40;79.60;;;;;;5087637;28;20043;-40
2021/01/18 05:08:29;;;;;;;1.08;0.98;;;7.40;79.60;;;;;;5088428;28;20485;-39
2021/01/18 05:10:56;;;;;;;2.10;1.00;;;7.40;79.70;;;;;;5074764;28;20048;-41
2021/01/18 05:13:23;;;;;;;1.10;0.90;;;7.40;79.70;;;;;;5075038;28;20492;-41
2021/01/18 05:15:50;;;;;;;1.05;0.95;;;7.50;79.70;;;;;;5074862;28;20045;-40
2021/01/18 05:18:16;;;;;;;2.78;1.75;;;7.50;79.70;;;;;;5081144;28;20091;-41
2021/01/18 05:20:41;;;;;;;0.77;0.77;;;7.40;79.70;;;;;;5092835;28;20072;-41
2021/01/18 05:23:07;;;;;;;2.58;1.00;;;7.40;79.70;;;;;;5094701;28;20044;-41
2021/01/18 05:25:34;;;;;;;1.00;0.80;;;7.40;79.70;;;;;;5079380;28;20103;-43
2021/01/18 05:28:08;;;;;;;1.58;1.10;;;7.40;79.70;;;;;;5091647;28;20036;-41
2021/01/18 05:30:42;;;;;;;1.95;1.20;;;7.50;79.70;;;;;;5092804;28;20052;-40
2021/01/18 05:33:11;;;;;;;2.58;1.10;;;7.40;79.70;;;;;;5094444;28;20078;-41
2021/01/18 05:35:38;;;;;;;1.23;1.00;;;7.40;79.70;;;;;;5078311;28;20055;-40
2021/01/18 05:38:10;;;;;;;1.00;0.90;;;7.40;79.70;;;;;;5074061;28;20434;-41
2021/01/18 05:40:46;;;;;;;1.83;1.23;;;7.50;79.70;;;;;;5087618;28;20052;-41
2021/01/18 05:43:15;;;;;;;1.80;1.10;;;7.50;79.70;;;;;;5092949;28;20499;-41
2021/01/18 05:45:42;;;;;;;1.33;1.10;;;7.50;79.70;;;;;;5094471;28;20048;-42
2021/01/18 05:48:09;;;;;;;2.22;1.10;;;7.40;79.70;;;;;;5090230;28;20049;-41
2021/01/18 05:50:36;;;;;;;2.78;1.17;;;7.40;79.70;;;;;;5073914;28;20044;-40
2021/01/18 05:53:22;;;;;;;1.75;1.08;;;7.40;79.70;;;;;;5074508;28;20412;-40
2021/01/18 05:55:48;;;;;;;3.47;0.90;;;7.50;79.70;;;;;;5074033;28;20079;-40
2021/01/18 05:58:28;;;;;;;1.58;1.05;;;7.50;79.80;;;;;;5084313;28;20071;-41
2021/01/18 06:00:55;;;;;;;1.73;1.17;;;7.40;79.70;;;;;;5093950;28;20115;-41
2021/01/18 06:03:29;;;;;;;1.95;1.10;;;7.50;79.70;;;;;;5091211;28;20067;-41
2021/01/18 06:05:56;;;;;;;2.08;1.02;;;7.40;79.70;;;;;;5088014;28;20059;-40
2021/01/18 06:08:23;;;;;;;1.08;0.98;;;7.40;79.70;;;;;;5073434;28;20553;-37
2021/01/18 06:10:51;;;;;;;1.00;0.80;;;7.40;79.70;;;;;;5077385;28;20043;-39
2021/01/18 06:13:22;;;;;;;1.27;1.00;;;7.40;79.70;;;;;;5085942;28;20053;-40
2021/01/18 06:15:52;;;;;;;1.80;0.93;;;7.40;80.30;;;;;;5074330;28;20047;-40
2021/01/18 06:18:17;;;;;;;1.40;0.93;;;7.40;79.70;;;;;;5073528;28;20098;-40
2021/01/18 06:20:44;;;;;;;1.70;0.98;;;7.40;79.70;;;;;;5087360;28;20052;-40
2021/01/18 06:23:10;;;;;;;1.17;0.95;;;7.40;79.70;;;;;;5093231;28;20051;-41
2021/01/18 06:25:38;;;;;;;1.23;1.00;;;7.40;79.70;;;;;;5092003;28;20060;-40
2021/01/18 06:28:36;;;;;;;1.42;1.27;;;7.40;79.70;;;;;;5087803;28;20047;-40
2021/01/18 06:31:09;;;;;;;1.20;1.10;;;7.40;79.70;;;;;;5073301;28;20040;-39
2021/01/18 06:33:38;;;;;;;1.38;1.10;;;7.50;79.70;;;;;;5087191;28;20404;-41
2021/01/18 06:36:12;;;;;;;2.60;1.10;;;7.50;79.70;;;;;;5091625;28;20063;-40
2021/01/18 06:38:40;;;;;;;1.00;0.75;;;7.40;79.70;;;;;;5081648;28;20500;-41
2021/01/18 06:41:07;;;;;;;1.20;0.75;;;7.50;79.70;;;;;;5073048;28;20443;-41
2021/01/18 06:43:34;;;;;;;2.33;1.00;;;7.50;79.80;;;;;;5083279;28;20507;-41
2021/01/18 06:46:12;;;;;;;2.45;1.00;;;7.40;79.70;;;;;;5091244;28;20048;-39
2021/01/18 06:48:38;;;;;;;1.15;0.82;;;7.50;79.70;;;;;;5090695;28;20526;-41
2021/01/18 06:51:13;;;;;;;1.58;0.95;;;7.50;79.70;;;;;;5093398;28;20142;-42
2021/01/18 06:53:47;;;;;;;0.80;0.73;;;7.50;79.70;;;;;;5082832;28;20108;-41
2021/01/18 06:56:45;;;;;;;1.23;0.90;;;7.50;79.70;;;;;;5073113;28;20053;-41
2021/01/18 06:59:39;;;;;;;1.30;0.98;;;7.50;79.80;;;;;;5072753;28;20049;-42
2021/01/18 07:02:33;;;;;;;2.15;0.90;;;7.50;79.70;;;;;;5072759;28;20050;-39
2021/01/18 07:05:07;;;;;;;2.10;1.13;;;7.50;79.70;;;;;;5072924;28;20051;-40
2021/01/18 07:07:35;;;;;;;2.10;0.93;;;7.40;79.70;;;;;;5074171;28;20485;-41
2021/01/18 07:10:07;;;;;;;1.40;1.02;;;7.40;79.70;;;;;;5088917;28;20537;-41
2021/01/18 07:12:33;;;;;;;1.42;1.10;;;7.50;79.80;;;;;;5091230;28;20144;-40
2021/01/18 07:15:03;;;;;;;2.30;1.13;;;7.50;79.80;;;;;;5093173;28;20127;-41
2021/01/18 07:17:42;;;;;;;2.33;0.90;;;7.40;79.70;;;;;;5096433;28;20056;-39
2021/01/18 07:20:12;;;;;;;2.65;1.00;;;7.50;79.70;;;;;;5077259;28;20041;-39
2021/01/18 07:22:46;;;;;;;1.48;1.08;;;7.50;79.80;;;;;;5076907;28;20049;-39
2021/01/18 07:25:12;;;;;;;1.75;0.80;;;7.50;79.80;;;;;;5086670;28;20477;-40
2021/01/18 07:27:46;;;;;;;1.77;0.90;;;7.50;79.80;;;;;;5076494;28;20052;-38
2021/01/18 07:30:12;;;;;;;3.20;1.38;;;7.50;79.80;;;;;;5077362;28;20045;-41
2021/01/18 07:32:38;;;;;;;1.25;0.88;;;7.50;79.80;;;;;;5076448;28;20503;-38
2021/01/18 07:35:06;;;;;;;1.15;1.00;;;7.50;79.80;;;;;;5096582;28;20119;-39
2021/01/18 07:37:31;;;;;;;1.73;0.80;;;7.50;79.80;;;;;;5088878;28;20102;-40
2021/01/18 07:40:18;;;;;;;1.10;1.00;;;7.50;79.80;;;;;;5078051;28;20044;-39
2021/01/18 07:42:43;;;;;;;2.17;1.00;;;7.50;79.80;;;;;;5085804;28;20052;-39
2021/01/18 07:45:12;;;;;;;3.08;1.00;;;7.40;79.80;;;;;;5091659;28;20044;-40
2021/01/18 07:47:56;;;;;;;1.20;0.93;;;7.50;79.80;;;;;;5095693;28;20052;-40
2021/01/18 07:50:29;;;;;;;1.38;0.90;;;7.50;79.80;;;;;;5078306;28;20079;-40
2021/01/18 07:53:05;;;;;;;2.25;1.00;;;7.50;80.40;;;;;;5076317;28;20080;-40
2021/01/18 07:55:31;;;;;;;1.05;0.88;;;7.50;79.80;;;;;;5080555;28;20044;-41
2021/01/18 07:58:13;;;;;;;1.05;0.82;;;7.50;79.80;;;;;;5096460;28;20138;-41
2021/01/18 08:00:39;;;;;;;1.20;1.00;;;7.50;79.80;;;;;;5077877;28;20044;-42
2021/01/18 08:03:08;;;;;;;2.33;1.60;;;7.40;80.40;;;;;;5075951;28;20041;-44
2021/01/18 08:05:35;;;;;;;2.10;1.20;;;7.50;79.80;;;;;;5076122;28;20055;-42
2021/01/18 08:08:12;;;;;;;1.45;1.10;;;7.50;79.70;;;;;;5084637;28;20051;-41
2021/01/18 08:10:56;;;;;;;1.17;0.93;;;7.50;79.80;;;;;;5082185;28;20389;-39
2021/01/18 08:13:32;;;;;;;1.00;0.90;;;7.50;79.70;;;;;;5075974;28;20114;-41
2021/01/18 08:16:16;;;;;;;2.50;1.20;;;7.50;79.70;;;;;;5088034;28;20040;-38
2021/01/18 08:18:53;;;;;;;2.65;1.10;;;7.50;79.70;;;;;;5075887;28;20056;-40
2021/01/18 08:21:34;;;;;;;1.77;1.08;;;7.50;79.70;;;;;;5087321;28;20507;-39
2021/01/18 08:24:04;;;;;;;1.50;0.90;;;7.50;79.80;;;;;;5095669;28;20052;-41
2021/01/18 08:27:04;;;;;;;1.45;1.15;;;7.50;79.80;;;;;;5095366;28;20072;-40
2021/01/18 08:29:45;;;;;;;1.00;0.90;;;7.50;79.70;;;;;;5096003;28;20129;-40
2021/01/18 08:32:30;;;;;;;1.20;1.10;;;7.50;80.40;;;;;;5094390;28;20067;-42
2021/01/18 08:34:58;;;;;;;2.47;1.23;;;7.50;79.70;;;;;;5075587;28;20056;-40
2021/01/18 08:37:26;;;;;;;1.70;1.20;;;7.50;79.70;;;;;;5075393;28;20059;-40
2021/01/18 08:39:57;;;;;;;10.50;4.32;;;7.50;79.70;;;;;;5075565;28;20048;-43
2021/01/18 08:42:28;;;;;;;8.45;3.80;;;7.40;79.50;;;;;;5075318;28;20082;-41
2021/01/18 08:45:00;;;;;;;7.90;3.78;;;7.30;79.70;;;;;;5074983;28;20477;-42
2021/01/18 08:47:38;;;;;;;9.18;3.83;;;7.30;79.80;;;;;;5074879;28;20044;-41
2021/01/18 08:50:28;;;;;;;9.68;4.32;;;7.30;79.80;;;;;;5074911;28;20552;-40
2021/01/18 08:53:02;;;;;;;8.73;3.75;;;7.30;79.80;;;;;;5074932;28;20120;-45
2021/01/18 08:55:30;;;;;;;10.88;3.67;;;7.40;79.90;;;;;;5074955;28;20083;-43
2021/01/18 08:58:01;;;;;;;7.43;3.78;;;7.40;79.90;;;;;;5075105;28;20076;-45
2021/01/18 09:00:46;;;;;;;7.53;3.92;;;7.40;79.90;;;;;;5075139;28;20094;-45
2021/01/18 09:03:19;;;;;;;10.07;3.92;;;7.40;79.90;;;;;;5074863;28;20055;-48
2021/01/18 09:05:52;;;;;;;7.35;3.47;;;7.40;80.00;;;;;;5074931;28;20052;-45
2021/01/18 09:08:20;;;;;;;8.43;3.55;;;7.40;79.90;;;;;;5074823;28;20055;-44
2021/01/18 09:10:57;;;;;;;8.00;3.63;;;7.40;79.90;;;;;;5074965;28;20048;-43
2021/01/18 09:13:26;;;;;;;8.38;3.20;;;7.40;79.90;;;;;;5082770;28;20066;-41
2021/01/18 09:15:53;;;;;;;9.88;3.40;;;7.40;79.90;;;;;;5084395;28;20044;-44
2021/01/18 09:18:22;;;;;;;8.32;3.85;;;7.40;79.90;;;;;;5094196;28;20055;-43
2021/01/18 09:20:49;;;;;;;7.88;3.40;;;7.40;79.90;;;;;;5094864;28;20045;-43
2021/01/18 09:23:16;;;;;;;6.18;3.67;;;7.50;79.90;;;;;;5094924;28;20131;-45
2021/01/18 09:25:43;;;;;;;13.57;4.30;;;7.50;79.90;;;;;;5094400;28;20109;-45
2021/01/18 09:28:14;;;;;;;8.25;3.75;;;7.40;79.80;;;;;;5094020;28;20055;-45
2021/01/18 09:30:42;;;;;;;5.47;3.80;;;7.40;79.90;;;;;;5088016;28;20498;-45
2021/01/18 09:33:11;;;;;;;9.50;3.75;;;7.40;80.60;;;;;;5075329;28;20090;-48
2021/01/18 09:35:41;;;;;;;10.90;4.35;;;7.40;80.00;;;;;;5079494;28;20492;-48
2021/01/18 09:38:09;;;;;;;9.40;4.65;;;7.40;80.00;;;;;;5093952;28;20050;-50
2021/01/18 09:40:38;;;;;;;11.13;3.60;;;7.40;80.00;;;;;;5094542;28;20072;-48
2021/01/18 09:43:06;;;;;;;10.20;4.00;;;7.40;80.00;;;;;;5094493;28;20123;-51
2021/01/18 09:45:33;;;;;;;5.68;3.38;;;7.40;80.00;;;;;;5093921;28;20059;-47
2021/01/18 09:48:02;;;;;;;6.05;3.47;;;7.40;80.00;;;;;;5086468;28;20044;-43
2021/01/18 09:50:28;;;;;;;10.55;3.65;;;7.40;80.00;;;;;;5074144;28;20052;-50
2021/01/18 09:52:54;;;;;;;5.50;3.20;;;7.40;80.00;;;;;;5074038;28;20049;-46
2021/01/18 09:55:27;;;;;;;7.25;3.00;;;7.40;80.00;;;;;;5073980;28;20408;-48
2021/01/18 09:58:18;;;;;;;8.35;3.80;;;7.40;80.00;;;;;;5074063;28;20401;-43
2021/01/18 10:00:47;;;;;;;4.88;3.08;;;7.40;80.00;;;;;;5073755;28;20127;-50
2021/01/18 10:03:36;;;;;;;8.38;3.65;;;7.40;80.00;;;;;;5073513;28;20124;-45
2021/01/18 10:06:14;;;;;;;6.28;3.08;;;7.50;80.00;;;;;;5073801;28;20080;-46
2021/01/18 10:08:44;;;;;;;5.28;3.05;;;7.50;80.10;;;;;;5073648;28;20842;-51
2021/01/18 10:11:10;;;;;;;8.43;3.95;;;7.50;80.10;;;;;;5073381;28;20048;-52
2021/01/18 10:13:36;;;;;;;3.55;3.22;;;7.50;80.10;;;;;;5073743;28;20056;-48
2021/01/18 10:16:11;;;;;;;4.35;2.88;;;7.50;80.00;;;;;;5073462;28;20045;-49
2021/01/18 10:18:42;;;;;;;5.05;2.70;;;7.50;80.10;;;;;;5073176;28;20044;-48
2021/01/18 10:21:10;;;;;;;5.68;3.42;;;7.50;80.00;;;;;;5073331;28;20056;-43
2021/01/18 10:23:40;;;;;;;4.47;3.13;;;7.50;80.10;;;;;;5073244;28;20040;-46
2021/01/18 10:26:14;;;;;;;5.50;3.22;;;7.50;80.00;;;;;;5073443;28;20048;-51
2021/01/18 10:29:05;;;;;;;6.07;3.70;;;7.50;80.10;;;;;;5073260;28;20052;-43
2021/01/18 10:31:34;;;;;;;5.55;3.03;;;7.50;80.10;;;;;;5078810;28;20049;-42
2021/01/18 10:34:15;;;;;;;4.13;2.70;;;7.50;80.00;;;;;;5072151;28;20071;-43
2021/01/18 10:36:45;;;;;;;5.68;2.88;;;7.50;80.00;;;;;;5072554;28;20050;-44
2021/01/18 10:39:28;;;;;;;5.57;2.83;;;7.50;80.00;;;;;;5072408;28;20149;-45
2021/01/18 10:42:02;;;;;;;5.28;2.65;;;7.50;80.00;;;;;;5072592;28;20044;-45
2021/01/18 10:44:27;;;;;;;5.55;2.70;;;7.50;80.00;;;;;;5072284;28;20087;-50
2021/01/18 10:46:53;;;;;;;3.78;2.75;;;7.50;80.00;;;;;;5072370;28;20072;-46
2021/01/18 10:49:30;;;;;;;5.50;2.85;;;7.50;80.00;;;;;;5071742;28;20057;-46
2021/01/18 10:52:09;;;;;;;5.63;2.92;;;7.50;80.00;;;;;;5072071;28;20178;-46
2021/01/18 10:54:35;;;;;;;4.40;2.40;;;7.50;80.70;;;;;;5072580;28;20056;-43
2021/01/18 10:57:02;;;;;;;4.68;2.70;;;7.50;80.00;;;;;;5072568;28;20052;-48
2021/01/18 10:59:29;;;;;;;4.50;2.50;;;7.50;80.00;;;;;;5091796;28;20489;-45
2021/01/18 11:02:05;;;;;;;5.57;2.75;;;7.50;80.00;;;;;;5084719;28;20044;-41
2021/01/18 11:04:42;;;;;;;5.07;2.90;;;7.50;80.00;;;;;;5077402;28;20512;-49
2021/01/18 11:07:10;;;;;;;5.28;2.35;;;7.50;80.00;;;;;;5071810;28;20048;-49
2021/01/18 11:09:36;;;;;;;3.17;2.42;;;7.50;80.00;;;;;;5072281;28;20049;-49
2021/01/18 11:12:03;;;;;;;4.60;2.92;;;7.50;80.00;;;;;;5071731;28;20045;-44
2021/01/18 11:14:30;;;;;;;3.33;2.20;;;7.60;80.00;;;;;;5078169;28;20048;-44
2021/01/18 11:17:00;;;;;;;3.63;2.63;;;7.50;80.00;;;;;;5086865;28;20052;-42
2021/01/18 11:19:26;;;;;;;3.67;2.40;;;7.60;80.00;;;;;;5069879;28;20052;-44
2021/01/18 11:21:52;;;;;;;3.75;2.50;;;7.60;80.10;;;;;;5067495;28;20059;-44
2021/01/18 11:24:18;;;;;;;3.72;2.13;;;7.60;80.00;;;;;;5067280;28;20053;-46
2021/01/18 11:26:50;;;;;;;3.55;2.50;;;7.60;80.00;;;;;;5066777;28;20389;-43
2021/01/18 11:29:17;;;;;;;4.03;2.33;;;7.60;80.00;;;;;;5068368;28;20041;-45
2021/01/18 11:31:43;;;;;;;3.75;2.15;;;7.60;80.10;;;;;;5066545;28;20088;-44
2021/01/18 11:34:09;;;;;;;4.18;2.22;;;7.60;80.00;;;;;;5067068;28;20049;-47
2021/01/18 11:36:35;;;;;;;3.70;1.98;;;7.60;80.00;;;;;;5066591;28;20052;-47
2021/01/18 11:39:01;;;;;;;4.20;2.38;;;7.60;80.00;;;;;;5073185;28;20048;-46
2021/01/18 11:41:27;;;;;;;4.40;2.30;;;7.60;80.00;;;;;;5086405;28;20392;-47
2021/01/18 11:43:53;;;;;;;3.15;2.05;;;7.60;80.00;;;;;;5086932;28;20055;-46
2021/01/18 11:46:19;;;;;;;4.72;2.30;;;7.60;80.00;;;;;;5087173;28;20055;-42
2021/01/18 11:48:45;;;;;;;2.75;2.08;;;7.60;80.00;;;;;;5086533;28;20062;-46
2021/01/18 11:51:12;;;;;;;2.35;2.05;;;7.60;80.00;;;;;;5085243;28;20105;-43
2021/01/18 11:53:37;;;;;;;4.75;2.40;;;7.60;79.90;;;;;;5086863;28;20052;-42
2021/01/18 11:56:03;;;;;;;3.50;1.95;;;7.60;80.00;;;;;;5086319;28;20059;-46
2021/01/18 11:58:29;;;;;;;2.58;2.10;;;7.60;80.00;;;;;;5086660;28;20051;-44
2021/01/18 12:00:55;;;;;;;3.25;1.92;;;7.60;79.90;;;;;;5077493;28;20056;-44
2021/01/18 12:03:21;;;;;;;3.83;1.95;;;7.60;79.90;;;;;;5070596;28;20174;-43
2021/01/18 12:05:46;;;;;;;5.20;2.00;;;7.60;79.90;;;;;;5069743;28;20531;-41
2021/01/18 12:08:12;;;;;;;3.28;2.00;;;7.60;79.90;;;;;;5070227;28;20060;-43
2021/01/18 12:10:39;;;;;;;2.17;1.80;;;7.60;79.90;;;;;;5071489;28;20076;-46
2021/01/18 12:13:05;;;;;;;3.67;1.88;;;7.60;79.90;;;;;;5070372;28;20049;-42
2021/01/18 12:15:33;;;;;;;3.78;1.90;;;7.60;79.90;;;;;;5070124;28;20040;-42
2021/01/18 12:17:59;;;;;;;2.95;1.90;;;7.60;79.90;;;;;;5069931;28;20110;-46
2021/01/18 12:20:26;;;;;;;3.17;2.10;;;7.60;79.90;;;;;;5069952;28;20057;-44
2021/01/18 12:22:54;;;;;;;2.58;1.73;;;7.60;79.90;;;;;;5086316;28;20055;-45
2021/01/18 12:25:20;;;;;;;2.35;1.92;;;7.70;80.00;;;;;;5090569;28;20048;-43
2021/01/18 12:27:49;;;;;;;3.85;2.10;;;7.60;79.90;;;;;;5089912;28;20048;-42
2021/01/18 12:30:15;;;;;;;2.67;2.15;;;7.60;79.90;;;;;;5081051;28;20049;-46
2021/01/18 12:32:41;;;;;;;3.92;2.08;;;7.60;79.90;;;;;;5076078;28;20051;-41
2021/01/18 12:35:07;;;;;;;2.78;1.63;;;7.60;79.90;;;;;;5082268;28;20520;-43
2021/01/18 12:37:33;;;;;;;2.35;1.77;;;7.60;79.90;;;;;;5075431;28;20040;-44
2021/01/18 12:39:58;;;;;;;3.08;1.65;;;7.60;79.80;;;;;;5091123;28;20044;-43
2021/01/18 12:42:24;;;;;;;2.50;1.73;;;7.60;79.90;;;;;;5093042;28;20044;-44
2021/01/18 12:44:50;;;;;;;3.92;2.05;;;7.60;79.80;;;;;;5076230;28;20428;-45
2021/01/18 12:47:15;;;;;;;1.65;1.40;;;7.60;79.80;;;;;;5073210;28;20052;-41
2021/01/18 12:49:41;;;;;;;2.67;1.90;;;7.60;79.80;;;;;;5093066;28;20051;-43
2021/01/18 12:52:09;;;;;;;2.40;1.73;;;7.70;79.90;;;;;;5077870;28;20190;-45
2021/01/18 12:54:36;;;;;;;3.00;1.98;;;7.60;79.80;;;;;;5083555;28;20052;-48
2021/01/18 12:57:02;;;;;;;3.38;1.92;;;7.70;79.90;;;;;;5083205;28;20500;-41
2021/01/18 12:59:28;;;;;;;2.67;1.85;;;7.70;79.90;;;;;;5085735;28;20044;-49
2021/01/18 13:01:53;;;;;;;2.15;1.48;;;7.70;79.80;;;;;;5094151;28;20059;-48
2021/01/18 13:04:19;;;;;;;2.75;1.77;;;7.70;79.90;;;;;;5094423;28;20044;-41
2021/01/18 13:06:46;;;;;;;2.42;1.60;;;7.70;79.80;;;;;;5094275;28;20130;-50
2021/01/18 13:09:16;;;;;;;3.60;1.80;;;7.70;79.90;;;;;;5093947;28;20044;-45
2021/01/18 13:11:47;;;;;;;1.50;1.40;;;7.70;79.90;;;;;;5095515;28;20415;-53
2021/01/18 13:14:14;;;;;;;3.92;1.73;;;7.70;79.80;;;;;;5092119;28;20064;-51